Time;durP1;ratioP1;P1;durP2;ratioP2;P2;SDS_P1;SDS_P2;PMS_P1;PMS_P2;Temp;Humidity;BMP_temperature;BMP_pressure;BME280_temperature;BME280_humidity;BME280_pressure;Samples;Min_cycle;Max_cycle;Signal;HPM_P1;HPM_P2
2022/01/31 00:00:17;;;;;;;;;;;;;;;3.60;67.45;101098.59;5033199;27;20120;-69
2022/01/31 00:02:43;;;;;;;;;;;;;;;3.59;67.66;101090.81;5031971;27;19899;-68
2022/01/31 00:05:09;;;;;;;;;;;;;;;3.66;66.82;101071.25;5033858;27;19912;-72
2022/01/31 00:07:34;;;;;;;;;;;;;;;3.63;67.50;101060.13;5058918;27;19907;-68
2022/01/31 00:09:59;;;;;;;;;;;;;;;3.53;67.37;101054.53;5052675;27;19970;-68
2022/01/31 00:12:29;;;;;;;;;;;;;;;3.48;67.28;101051.31;5054160;27;20454;-71
2022/01/31 00:15:01;;;;;;;;;;;;;;;3.57;67.69;101045.59;5073178;27;19926;-67
2022/01/31 00:17:26;;;;;;;;;;;;;;;3.49;67.65;101037.31;5037252;27;20821;-71
2022/01/31 00:19:51;;;;;;;;;;;;;;;3.55;67.48;101016.03;5045987;27;19904;-71
2022/01/31 00:22:16;;;;;;;;;;;;;;;3.55;67.72;100995.97;5026883;27;19978;-69
2022/01/31 00:24:42;;;;;;;;;;;;;;;3.56;67.50;100976.69;5046908;27;19907;-69
2022/01/31 00:27:07;;;;;;;;;;;;;;;3.46;67.67;100970.28;5017291;27;19964;-70
2022/01/31 00:29:33;;;;;;;;;;;;;;;3.44;67.82;100966.91;5032833;27;19914;-69
2022/01/31 00:31:58;;;;;;;;;;;;;;;3.52;67.42;100961.25;5033105;27;19913;-68
2022/01/31 00:34:23;;;;;;;;;;;;;;;3.50;67.33;100960.50;5032674;27;19915;-70
2022/01/31 00:36:48;;;;;;;;;;;;;;;3.52;67.19;100953.41;5034691;27;19911;-69
2022/01/31 00:39:14;;;;;;;;;;;;;;;3.53;67.28;100942.03;5052296;27;19930;-68
2022/01/31 00:41:39;;;;;;;;;;;;;;;3.64;67.41;100936.16;5034287;27;19899;-71
2022/01/31 00:46:46;;;;;;;;;;;;;;;3.59;67.13;100918.13;5055251;27;19915;-69
2022/01/31 00:51:55;;;;;;;;;;;;;;;3.76;67.10;100907.50;5036502;27;20792;-71
2022/01/31 00:54:21;;;;;;;;;;;;;;;3.68;66.95;100896.66;5019761;27;20039;-71
2022/01/31 00:56:46;;;;;;;;;;;;;;;3.69;66.97;100900.94;5013620;27;20016;-70
2022/01/31 00:59:12;;;;;;;;;;;;;;;3.69;67.07;100884.41;4996581;27;19907;-69
2022/01/31 01:01:37;;;;;;;;;;;;;;;3.72;67.28;100882.47;5030130;27;19992;-70
2022/01/31 01:04:02;;;;;;;;;;;;;;;3.75;67.01;100890.16;5013721;27;20510;-68
2022/01/31 01:06:27;;;;;;;;;;;;;;;3.81;67.07;100888.09;5017284;27;20908;-68
2022/01/31 01:08:53;;;;;;;;;;;;;;;3.83;66.62;100875.75;5051859;27;21063;-68
2022/01/31 01:11:18;;;;;;;;;;;;;;;3.77;66.99;100861.25;5033236;27;20905;-69
2022/01/31 01:13:43;;;;;;;;;;;;;;;3.83;67.17;100847.81;5016043;27;20697;-69
2022/01/31 01:16:08;;;;;;;;;;;;;;;3.82;66.70;100840.03;5031319;27;20831;-69
2022/01/31 01:18:34;;;;;;;;;;;;;;;3.76;67.45;100831.59;5051576;27;19907;-68
2022/01/31 01:20:59;;;;;;;;;;;;;;;3.75;67.84;100816.00;5031468;27;19947;-70
2022/01/31 01:23:24;;;;;;;;;;;;;;;3.77;68.00;100801.91;5026059;27;20016;-69
2022/01/31 01:25:50;;;;;;;;;;;;;;;3.80;67.71;100795.63;5053660;27;19899;-69
2022/01/31 01:28:16;;;;;;;;;;;;;;;3.85;67.44;100790.97;5050647;27;20004;-69
2022/01/31 01:30:41;;;;;;;;;;;;;;;3.91;67.36;100769.66;5030803;27;19907;-68
2022/01/31 01:33:11;;;;;;;;;;;;;;;3.82;67.17;100769.38;5013965;27;20039;-70
2022/01/31 01:35:38;;;;;;;;;;;;;;;3.83;67.42;100758.81;5032358;27;19941;-70
2022/01/31 01:38:07;;;;;;;;;;;;;;;3.86;67.49;100745.53;5027342;27;19908;-70
2022/01/31 01:40:34;;;;;;;;;;;;;;;3.82;67.34;100728.34;5045830;27;20157;-69
2022/01/31 01:42:59;;;;;;;;;;;;;;;3.82;67.87;100704.78;5033618;27;19914;-69
2022/01/31 01:45:25;;;;;;;;;;;;;;;3.76;68.38;100699.91;5032445;27;19919;-68
2022/01/31 01:47:50;;;;;;;;;;;;;;;3.77;68.63;100685.91;5031295;27;20606;-68
2022/01/31 01:50:15;;;;;;;;;;;;;;;3.81;67.95;100666.47;5050103;27;20016;-69
2022/01/31 01:52:40;;;;;;;;;;;;;;;3.94;67.72;100650.81;5043399;27;20032;-69
2022/01/31 01:55:06;;;;;;;;;;;;;;;3.80;68.49;100641.22;5009705;27;20032;-70
2022/01/31 01:57:31;;;;;;;;;;;;;;;3.82;68.23;100622.78;5011760;27;19948;-69
2022/01/31 01:59:57;;;;;;;;;;;;;;;3.71;68.76;100612.97;5035029;27;19975;-70
2022/01/31 02:02:23;;;;;;;;;;;;;;;3.80;68.74;100596.72;5033601;27;19997;-67
2022/01/31 02:04:48;;;;;;;;;;;;;;;3.80;68.35;100581.00;5045784;27;19956;-69
2022/01/31 02:07:13;;;;;;;;;;;;;;;3.78;68.78;100572.44;5004844;27;20036;-71
2022/01/31 02:09:43;;;;;;;;;;;;;;;3.81;68.78;100571.38;5017120;27;20448;-69
2022/01/31 02:12:09;;;;;;;;;;;;;;;3.85;68.65;100565.00;4994213;27;20663;-70
2022/01/31 02:14:34;;;;;;;;;;;;;;;3.83;68.66;100549.41;5032954;27;19930;-70
2022/01/31 02:16:59;;;;;;;;;;;;;;;3.81;69.42;100545.19;5001679;27;19959;-70
2022/01/31 02:19:24;;;;;;;;;;;;;;;3.88;68.97;100541.28;4992050;27;19952;-70
2022/01/31 02:21:50;;;;;;;;;;;;;;;3.93;68.87;100532.19;5025854;27;20012;-71
2022/01/31 02:24:15;;;;;;;;;;;;;;;3.89;69.01;100516.75;5023709;27;19918;-69
2022/01/31 02:26:41;;;;;;;;;;;;;;;3.90;68.68;100489.66;5013350;27;19974;-69
2022/01/31 02:29:08;;;;;;;;;;;;;;;3.87;69.79;100482.00;5031868;27;20012;-70
2022/01/31 02:31:34;;;;;;;;;;;;;;;3.78;70.17;100472.97;5029675;27;19937;-70
2022/01/31 02:33:59;;;;;;;;;;;;;;;3.83;71.08;100464.81;5010304;27;20024;-69
2022/01/31 02:36:24;;;;;;;;;;;;;;;3.85;69.90;100452.44;5011237;27;20017;-69
2022/01/31 02:38:49;;;;;;;;;;;;;;;3.71;70.82;100441.13;5016721;27;20028;-69
2022/01/31 02:41:14;;;;;;;;;;;;;;;3.72;71.67;100441.94;5032093;27;20008;-71
2022/01/31 02:43:40;;;;;;;;;;;;;;;3.86;72.30;100434.03;5028212;27;19979;-69
2022/01/31 02:46:05;;;;;;;;;;;;;;;3.78;72.38;100421.47;4999590;27;20107;-69
2022/01/31 02:48:33;;;;;;;;;;;;;;;3.80;74.42;100413.50;4998273;27;19908;-69
2022/01/31 02:50:59;;;;;;;;;;;;;;;3.81;74.89;100415.19;5036484;27;20008;-68
2022/01/31 02:53:26;;;;;;;;;;;;;;;3.96;74.56;100413.31;5031054;27;20414;-70
2022/01/31 02:55:52;;;;;;;;;;;;;;;4.01;75.66;100405.19;5049381;27;19903;-70
2022/01/31 02:58:17;;;;;;;;;;;;;;;3.87;77.49;100403.47;5030125;27;19915;-70
2022/01/31 03:00:42;;;;;;;;;;;;;;;4.17;76.19;100394.50;5014148;27;19912;-68
2022/01/31 03:03:07;;;;;;;;;;;;;;;3.98;78.51;100395.75;5030934;27;20052;-70
2022/01/31 03:05:33;;;;;;;;;;;;;;;3.99;79.12;100386.97;5010465;28;20887;-70
2022/01/31 03:07:58;;;;;;;;;;;;;;;4.13;78.87;100378.13;5026378;28;20763;-70
2022/01/31 03:10:23;;;;;;;;;;;;;;;4.03;80.20;100377.09;5025502;28;20924;-70
2022/01/31 03:12:48;;;;;;;;;;;;;;;4.08;80.89;100365.38;5026357;28;20004;-71
2022/01/31 03:15:14;;;;;;;;;;;;;;;4.15;81.61;100363.19;5010588;27;19934;-69
2022/01/31 03:17:42;;;;;;;;;;;;;;;4.22;82.35;100367.03;5030822;27;20288;-68
2022/01/31 03:20:08;;;;;;;;;;;;;;;4.07;83.06;100340.13;5028814;27;20823;-71
2022/01/31 03:22:33;;;;;;;;;;;;;;;4.02;82.43;100344.84;5029366;27;20057;-71
2022/01/31 03:24:58;;;;;;;;;;;;;;;4.08;83.16;100327.88;5029963;27;19956;-69
2022/01/31 03:27:24;;;;;;;;;;;;;;;4.05;83.53;100318.47;5048785;27;20012;-67
2022/01/31 03:29:49;;;;;;;;;;;;;;;4.10;83.66;100318.13;5030706;27;20024;-67
2022/01/31 03:32:14;;;;;;;;;;;;;;;4.11;84.34;100306.72;5032131;27;20588;-69
2022/01/31 03:34:40;;;;;;;;;;;;;;;3.93;84.51;100300.97;5033551;27;20933;-69
2022/01/31 03:37:05;;;;;;;;;;;;;;;3.86;85.51;100289.25;5032005;27;20194;-70
2022/01/31 03:39:30;;;;;;;;;;;;;;;3.97;85.84;100291.97;5014880;27;19903;-69
2022/01/31 03:41:55;;;;;;;;;;;;;;;4.05;86.09;100278.34;5050160;27;20019;-70
2022/01/31 03:44:21;;;;;;;;;;;;;;;3.94;86.18;100271.22;5016702;27;20008;-70
2022/01/31 03:46:46;;;;;;;;;;;;;;;3.85;86.78;100287.56;5051605;27;19915;-68
2022/01/31 03:49:11;;;;;;;;;;;;;;;3.91;85.37;100267.03;5013879;27;20690;-68
2022/01/31 03:51:36;;;;;;;;;;;;;;;4.04;84.96;100263.59;5030178;27;20783;-69
2022/01/31 03:54:03;;;;;;;;;;;;;;;3.99;86.40;100261.28;5023640;27;20728;-71
2022/01/31 03:56:28;;;;;;;;;;;;;;;3.95;86.49;100250.19;4997814;27;19908;-70
2022/01/31 03:58:53;;;;;;;;;;;;;;;3.85;86.93;100245.69;4997848;27;19960;-70
2022/01/31 04:01:18;;;;;;;;;;;;;;;3.95;86.77;100244.13;5059979;27;20322;-68
2022/01/31 04:03:44;;;;;;;;;;;;;;;3.99;87.06;100242.97;5053158;27;20456;-68
2022/01/31 04:06:09;;;;;;;;;;;;;;;3.93;87.14;100246.84;5074357;27;20974;-69
2022/01/31 04:08:34;;;;;;;;;;;;;;;4.03;87.13;100236.53;5054181;27;20977;-69
2022/01/31 04:10:59;;;;;;;;;;;;;;;3.97;87.43;100241.38;5036904;27;20947;-69
2022/01/31 04:13:26;;;;;;;;;;;;;;;3.78;87.82;100227.78;5039000;27;20236;-67
2022/01/31 04:15:51;;;;;;;;;;;;;;;3.84;87.95;100215.22;5044146;27;19920;-69
2022/01/31 04:18:17;;;;;;;;;;;;;;;3.95;87.78;100220.56;5020224;27;19931;-69
2022/01/31 04:20:42;;;;;;;;;;;;;;;3.99;87.24;100216.78;5019260;27;19976;-70
2022/01/31 04:23:11;;;;;;;;;;;;;;;4.04;87.68;100219.06;5041755;27;20104;-70
2022/01/31 04:30:50;;;;;;;;;;;;;;;4.17;88.49;100211.19;5032195;27;19904;-70
2022/01/31 04:33:15;;;;;;;;;;;;;;;4.04;88.89;100196.34;5002350;27;19979;-71
2022/01/31 04:35:40;;;;;;;;;;;;;;;4.13;89.28;100211.41;5012329;27;20004;-69
2022/01/31 04:38:05;;;;;;;;;;;;;;;4.12;89.63;100204.50;5015268;27;19907;-69
2022/01/31 04:40:30;;;;;;;;;;;;;;;4.12;90.09;100193.19;5012424;27;19993;-69
2022/01/31 04:42:56;;;;;;;;;;;;;;;4.25;89.19;100206.25;5013123;27;20229;-69
2022/01/31 04:45:21;;;;;;;;;;;;;;;4.26;89.90;100189.59;5041635;27;20377;-70
2022/01/31 04:47:46;;;;;;;;;;;;;;;4.27;90.59;100186.00;5050105;27;19994;-69
2022/01/31 04:50:11;;;;;;;;;;;;;;;4.27;90.37;100168.53;5034281;27;19926;-70
2022/01/31 04:52:38;;;;;;;;;;;;;;;4.37;90.97;100173.94;5007140;28;19956;-70
2022/01/31 04:55:04;;;;;;;;;;;;;;;4.46;90.22;100175.06;5055177;27;19915;-68
2022/01/31 04:57:29;;;;;;;;;;;;;;;4.47;89.52;100172.31;5028513;27;20395;-69
2022/01/31 04:59:54;;;;;;;;;;;;;;;4.43;90.76;100180.53;5052148;27;19971;-69
2022/01/31 05:02:20;;;;;;;;;;;;;;;4.45;89.99;100163.72;5015563;27;20023;-68
2022/01/31 05:04:45;;;;;;;;;;;;;;;4.55;89.99;100155.19;5032489;27;19907;-70
2022/01/31 05:07:10;;;;;;;;;;;;;;;4.46;90.51;100160.16;5033885;27;19904;-68
2022/01/31 05:09:35;;;;;;;;;;;;;;;4.61;90.34;100152.13;5031845;27;20057;-69
2022/01/31 05:12:01;;;;;;;;;;;;;;;4.76;89.50;100153.59;5032301;27;19915;-70
2022/01/31 05:14:26;;;;;;;;;;;;;;;4.69;89.47;100144.53;5017723;27;20849;-69
2022/01/31 05:16:51;;;;;;;;;;;;;;;4.68;89.57;100142.84;5016920;27;20855;-71
2022/01/31 05:19:16;;;;;;;;;;;;;;;4.69;90.08;100148.94;5032323;27;20529;-69
2022/01/31 05:21:42;;;;;;;;;;;;;;;4.87;89.54;100146.75;5013756;27;19918;-68
2022/01/31 05:24:07;;;;;;;;;;;;;;;4.94;88.68;100153.19;5048201;27;20017;-69
2022/01/31 05:26:33;;;;;;;;;;;;;;;4.97;88.87;100155.59;5032091;27;19991;-70
2022/01/31 05:28:58;;;;;;;;;;;;;;;5.01;88.55;100137.84;5014925;27;19991;-69
2022/01/31 05:31:23;;;;;;;;;;;;;;;5.03;88.58;100142.00;5034245;27;20793;-66
2022/01/31 05:33:48;;;;;;;;;;;;;;;4.97;89.08;100121.50;5053783;27;20074;-69
2022/01/31 05:36:14;;;;;;;;;;;;;;;5.05;88.51;100121.75;5032416;27;20015;-69
2022/01/31 05:38:40;;;;;;;;;;;;;;;4.92;88.89;100119.22;5016767;27;20328;-69
2022/01/31 05:41:08;;;;;;;;;;;;;;;4.89;89.63;100113.38;5023139;27;19907;-69
2022/01/31 05:43:33;;;;;;;;;;;;;;;4.94;89.47;100111.25;5032119;27;19921;-70
2022/01/31 05:45:58;;;;;;;;;;;;;;;5.00;88.39;100118.63;5047919;27;19927;-71
2022/01/31 05:48:23;;;;;;;;;;;;;;;4.99;87.86;100130.06;5000041;27;20352;-69
2022/01/31 05:50:49;;;;;;;;;;;;;;;5.02;87.83;100127.25;5050236;27;19977;-71
2022/01/31 05:53:14;;;;;;;;;;;;;;;4.95;87.61;100103.25;5031880;27;20105;-71
2022/01/31 05:55:40;;;;;;;;;;;;;;;5.00;87.31;100102.91;5027554;27;20016;-71
2022/01/31 05:58:05;;;;;;;;;;;;;;;5.07;86.67;100119.00;5036501;27;19903;-69
2022/01/31 06:00:31;;;;;;;;;;;;;;;5.13;86.11;100108.91;5005029;27;19976;-69
2022/01/31 06:02:57;;;;;;;;;;;;;;;5.19;86.15;100109.38;5015694;27;19954;-69
2022/01/31 06:05:23;;;;;;;;;;;;;;;5.09;86.46;100104.84;5031336;27;20515;-68
2022/01/31 06:07:49;;;;;;;;;;;;;;;5.14;85.72;100110.53;5016704;27;20333;-70
2022/01/31 06:10:15;;;;;;;;;;;;;;;5.07;85.44;100105.91;5036264;27;19907;-71
2022/01/31 06:12:41;;;;;;;;;;;;;;;5.15;85.56;100108.78;5003304;28;19949;-67
2022/01/31 06:15:06;;;;;;;;;;;;;;;5.21;85.77;100104.84;5010016;28;19915;-70
2022/01/31 06:17:32;;;;;;;;;;;;;;;5.18;85.83;100086.72;5036613;27;20325;-67
2022/01/31 06:19:57;;;;;;;;;;;;;;;5.15;85.95;100082.56;5012486;27;20241;-69
2022/01/31 06:22:22;;;;;;;;;;;;;;;5.16;86.02;100092.91;5018625;27;20698;-69
2022/01/31 06:24:47;;;;;;;;;;;;;;;5.17;86.22;100091.13;5011544;27;19908;-69
2022/01/31 06:27:13;;;;;;;;;;;;;;;5.16;85.69;100089.44;5019062;27;20320;-71
2022/01/31 06:29:38;;;;;;;;;;;;;;;5.21;83.81;100089.94;5031543;27;19970;-69
2022/01/31 06:32:04;;;;;;;;;;;;;;;5.21;84.04;100087.31;5016872;27;20058;-69
2022/01/31 06:34:29;;;;;;;;;;;;;;;5.23;83.08;100090.66;5013574;27;19980;-69
2022/01/31 06:36:54;;;;;;;;;;;;;;;5.25;83.96;100086.13;5049000;27;19951;-70
2022/01/31 06:39:20;;;;;;;;;;;;;;;5.23;83.23;100092.44;5055820;27;20012;-70
2022/01/31 06:41:45;;;;;;;;;;;;;;;5.37;81.82;100078.25;5048778;27;21198;-69
2022/01/31 06:44:10;;;;;;;;;;;;;;;5.39;81.15;100079.81;5016879;27;20023;-69
2022/01/31 06:46:35;;;;;;;;;;;;;;;5.26;81.55;100066.81;5033390;27;19934;-70
2022/01/31 06:49:01;;;;;;;;;;;;;;;5.33;81.43;100056.69;5015866;27;19899;-69
2022/01/31 06:51:30;;;;;;;;;;;;;;;5.27;81.37;100062.41;5040376;27;19922;-69
2022/01/31 06:53:57;;;;;;;;;;;;;;;5.30;81.05;100064.78;5018214;27;19938;-69
2022/01/31 06:56:29;;;;;;;;;;;;;;;5.31;80.88;100063.81;5034487;27;19955;-70
2022/01/31 06:58:54;;;;;;;;;;;;;;;5.31;79.79;100064.66;5035649;27;19967;-69
2022/01/31 07:01:24;;;;;;;;;;;;;;;5.24;80.12;100060.00;5073893;27;20011;-70
2022/01/31 07:03:49;;;;;;;;;;;;;;;5.31;80.00;100058.59;5055399;27;19907;-70
2022/01/31 07:06:15;;;;;;;;;;;;;;;5.31;79.05;100053.34;5055444;27;20737;-69
2022/01/31 07:08:40;;;;;;;;;;;;;;;5.33;79.14;100056.69;5073617;27;19910;-69
2022/01/31 07:11:05;;;;;;;;;;;;;;;5.23;80.34;100053.94;5020462;28;20009;-69
2022/01/31 07:15:56;;;;;;;;;;;;;;;5.07;81.85;100040.34;5056989;27;19952;-70
2022/01/31 07:18:21;;;;;;;;;;;;;;;5.10;82.09;100056.66;5051051;27;19914;-69
2022/01/31 07:20:50;;;;;;;;;;;;;;;5.06;82.83;100044.75;5027946;27;19908;-70
2022/01/31 07:23:26;;;;;;;;;;;;;;;4.88;83.56;100048.78;5023709;27;19907;-71
2022/01/31 07:25:52;;;;;;;;;;;;;;;4.82;84.25;100057.94;5036128;27;20651;-68
2022/01/31 07:28:17;;;;;;;;;;;;;;;4.79;84.28;100060.81;5032056;28;19903;-67
2022/01/31 07:30:45;;;;;;;;;;;;;;;4.66;85.33;100081.88;5030202;27;19907;-69
2022/01/31 07:33:10;;;;;;;;;;;;;;;4.68;85.18;100073.88;5031530;28;20804;-68
2022/01/31 07:35:35;;;;;;;;;;;;;;;4.63;85.28;100079.47;5033352;27;19979;-67
2022/01/31 07:38:01;;;;;;;;;;;;;;;4.44;86.32;100098.34;5017511;28;19908;-68
2022/01/31 07:40:26;;;;;;;;;;;;;;;4.44;86.54;100095.72;5024263;27;19911;-68
2022/01/31 07:42:51;;;;;;;;;;;;;;;4.45;86.94;100084.28;5046899;27;20000;-69
2022/01/31 07:45:16;;;;;;;;;;;;;;;4.33;87.34;100080.81;5017238;27;20435;-68
2022/01/31 07:47:42;;;;;;;;;;;;;;;4.33;87.75;100072.09;5044295;27;19962;-69
2022/01/31 07:50:07;;;;;;;;;;;;;;;4.27;87.44;100076.00;5035151;27;20485;-68
2022/01/31 07:52:33;;;;;;;;;;;;;;;4.21;86.96;100071.22;5014830;27;20011;-69
2022/01/31 07:54:58;;;;;;;;;;;;;;;4.18;86.65;100069.66;5025686;27;19930;-68
2022/01/31 07:57:25;;;;;;;;;;;;;;;4.11;86.73;100071.88;5022416;27;19940;-68
2022/01/31 07:59:50;;;;;;;;;;;;;;;4.20;87.34;100074.78;5015215;27;20162;-68
2022/01/31 08:02:15;;;;;;;;;;;;;;;4.32;86.51;100079.13;5025278;28;20641;-68
2022/01/31 08:04:40;;;;;;;;;;;;;;;4.36;86.44;100064.88;5011801;28;20004;-68
2022/01/31 08:07:05;;;;;;;;;;;;;;;4.39;86.14;100054.16;5035452;27;20373;-69
2022/01/31 08:09:31;;;;;;;;;;;;;;;4.33;85.42;100062.47;5020227;27;19911;-68
2022/01/31 08:11:56;;;;;;;;;;;;;;;4.37;86.75;100049.97;5005465;28;20374;-70
2022/01/31 08:14:21;;;;;;;;;;;;;;;4.42;86.70;100047.84;5033197;27;19933;-70
2022/01/31 08:16:46;;;;;;;;;;;;;;;4.27;86.55;100049.81;5037584;27;20388;-71
2022/01/31 08:19:12;;;;;;;;;;;;;;;4.27;85.49;100042.81;5033404;27;19915;-67
2022/01/31 08:21:37;;;;;;;;;;;;;;;4.34;86.16;100040.56;5028865;27;19911;-68
2022/01/31 08:24:03;;;;;;;;;;;;;;;4.41;85.63;100040.94;5010750;27;20321;-70
2022/01/31 08:26:28;;;;;;;;;;;;;;;4.27;85.44;100041.97;5035442;27;20078;-69
2022/01/31 08:31:24;;;;;;;;;;;;;;;4.46;85.57;100044.88;5041382;27;19904;-68
2022/01/31 08:36:14;;;;;;;;;;;;;;;4.48;84.50;100047.38;5025639;27;20131;-68
2022/01/31 08:38:40;;;;;;;;;;;;;;;4.52;84.44;100048.00;5014368;27;19919;-70
2022/01/31 08:41:06;;;;;;;;;;;;;;;4.49;84.28;100043.81;5035733;27;19907;-69
2022/01/31 08:43:32;;;;;;;;;;;;;;;4.57;84.23;100045.84;5022276;27;19916;-68
2022/01/31 08:45:57;;;;;;;;;;;;;;;4.51;84.18;100046.31;5049622;27;19983;-70
2022/01/31 08:48:23;;;;;;;;;;;;;;;4.57;84.27;100051.09;5033062;27;19912;-68
2022/01/31 08:50:48;;;;;;;;;;;;;;;4.49;84.77;100037.75;5030100;27;19907;-69
2022/01/31 08:53:13;;;;;;;;;;;;;;;4.47;84.57;100040.50;5021819;27;20064;-68
2022/01/31 08:55:39;;;;;;;;;;;;;;;4.42;85.47;100059.16;5053435;27;19960;-70
2022/01/31 08:58:06;;;;;;;;;;;;;;;4.42;85.41;100061.78;5061001;27;20844;-70
2022/01/31 09:00:36;;;;;;;;;;;;;;;4.35;85.73;100051.88;5037180;27;20061;-67
2022/01/31 09:03:17;;;;;;;;;;;;;;;4.31;85.36;100053.88;5020117;27;21027;-69
2022/01/31 09:05:42;;;;;;;;;;;;;;;4.24;86.74;100056.09;5032348;27;20741;-69
2022/01/31 09:08:07;;;;;;;;;;;;;;;4.13;86.23;100046.44;5065497;27;20004;-68
2022/01/31 09:10:33;;;;;;;;;;;;;;;4.07;87.53;100041.63;5040812;27;20701;-68
2022/01/31 09:12:59;;;;;;;;;;;;;;;4.11;87.25;100039.66;5020134;27;19916;-68
2022/01/31 09:15:24;;;;;;;;;;;;;;;4.21;87.84;100047.66;5026158;27;19908;-69
2022/01/31 09:17:49;;;;;;;;;;;;;;;4.14;87.51;100031.56;5046602;27;20541;-70
2022/01/31 09:20:14;;;;;;;;;;;;;;;3.99;87.45;100040.53;5029482;27;20301;-68
2022/01/31 09:22:41;;;;;;;;;;;;;;;4.09;87.87;100037.13;5035508;27;20062;-69
2022/01/31 09:25:06;;;;;;;;;;;;;;;4.14;88.10;100018.47;5063468;27;19914;-68
2022/01/31 09:27:31;;;;;;;;;;;;;;;4.11;87.63;100019.53;5032604;27;19911;-66
2022/01/31 09:29:59;;;;;;;;;;;;;;;4.12;87.23;100021.19;5044664;27;19907;-69
2022/01/31 09:32:24;;;;;;;;;;;;;;;4.12;87.08;100026.44;5046274;27;19903;-69
2022/01/31 09:34:50;;;;;;;;;;;;;;;4.17;87.43;100018.22;5063597;27;19921;-68
2022/01/31 09:37:15;;;;;;;;;;;;;;;4.20;87.47;100014.56;5041225;27;19919;-69
2022/01/31 09:39:42;;;;;;;;;;;;;;;4.23;87.01;99994.22;5030155;27;20098;-68
2022/01/31 09:42:11;;;;;;;;;;;;;;;4.22;87.28;100010.88;5025117;27;20008;-69
2022/01/31 09:44:41;;;;;;;;;;;;;;;3.99;87.61;100014.34;5019342;27;19915;-68
2022/01/31 09:48:32;;;;;;;;;;;;;;;4.05;88.09;100001.66;5045696;27;19979;-67
2022/01/31 09:50:10;;;;;;;;;;;;;;;4.03;87.84;100002.72;5047185;27;19911;-68
2022/01/31 09:52:35;;;;;;;;;;;;;;;4.10;87.85;100010.03;5065473;27;19976;-69
2022/01/31 09:55:00;;;;;;;;;;;;;;;4.05;88.09;100019.16;5045597;27;19934;-68
2022/01/31 09:57:25;;;;;;;;;;;;;;;3.97;88.60;100001.38;5046048;27;19963;-69
2022/01/31 09:59:50;;;;;;;;;;;;;;;4.04;88.59;100001.78;5045486;27;20317;-68
2022/01/31 10:02:16;;;;;;;;;;;;;;;4.04;87.34;99996.53;5044098;27;19952;-69
2022/01/31 10:04:42;;;;;;;;;;;;;;;4.05;88.21;100009.50;5049665;27;20036;-68
2022/01/31 10:07:08;;;;;;;;;;;;;;;4.02;88.09;100003.66;5046344;27;20318;-68
2022/01/31 10:09:33;;;;;;;;;;;;;;;3.99;88.50;100004.75;5030952;27;19903;-68
2022/01/31 10:12:24;;;;;;;;;;;;;;;4.02;88.26;100001.88;5017876;27;20024;-69
2022/01/31 10:17:37;;;;;;;;;;;;;;;3.90;88.40;100008.84;5051987;27;20425;-69
2022/01/31 10:20:07;;;;;;;;;;;;;;;3.90;88.81;100021.94;5067176;27;20189;-69
2022/01/31 10:22:33;;;;;;;;;;;;;;;3.91;89.01;100007.91;5043450;27;20257;-69
2022/01/31 10:25:01;;;;;;;;;;;;;;;3.99;88.72;100024.81;5045081;27;19940;-69
2022/01/31 10:27:29;;;;;;;;;;;;;;;4.00;89.09;100027.31;5048353;27;20754;-68
2022/01/31 10:29:55;;;;;;;;;;;;;;;3.94;89.11;100035.63;5025750;27;19911;-68
2022/01/31 10:32:27;;;;;;;;;;;;;;;3.95;89.72;100034.69;5038992;27;19975;-69
2022/01/31 10:34:53;;;;;;;;;;;;;;;4.10;89.62;100038.81;5027866;27;19923;-67
2022/01/31 10:37:21;;;;;;;;;;;;;;;3.99;89.41;100038.78;5019662;27;20354;-69
2022/01/31 10:51:58;;;;;;;;;;;;;;;4.05;88.74;100038.31;5057241;27;20751;-69
2022/01/31 10:53:51;;;;;;;;;;;;;;;4.04;89.57;100054.13;5052733;27;20372;-70
2022/01/31 10:56:16;;;;;;;;;;;;;;;4.09;89.63;100060.72;5057406;27;19907;-68
2022/01/31 10:58:54;;;;;;;;;;;;;;;4.15;89.34;100053.34;5043592;27;20420;-69
2022/01/31 11:01:19;;;;;;;;;;;;;;;4.25;89.39;100060.41;5063349;27;19982;-70
2022/01/31 11:03:45;;;;;;;;;;;;;;;4.10;90.11;100054.53;5030425;27;20043;-67
2022/01/31 11:06:11;;;;;;;;;;;;;;;4.23;89.33;100040.50;5064533;27;20677;-68
2022/01/31 11:08:36;;;;;;;;;;;;;;;4.29;88.83;100061.03;5047077;27;19972;-70
2022/01/31 11:11:01;;;;;;;;;;;;;;;4.28;88.76;100068.03;5040163;28;20008;-68
2022/01/31 11:13:27;;;;;;;;;;;;;;;4.28;88.07;100046.25;5046450;27;19998;-67
2022/01/31 11:15:53;;;;;;;;;;;;;;;4.40;87.98;100061.06;5062919;27;19976;-68
2022/01/31 11:18:18;;;;;;;;;;;;;;;4.39;89.14;100058.56;5064451;27;20273;-69
2022/01/31 11:20:44;;;;;;;;;;;;;;;4.44;88.64;100074.75;5041310;27;20800;-68
2022/01/31 11:23:09;;;;;;;;;;;;;;;4.41;88.59;100062.75;5040036;27;20012;-69
2022/01/31 11:25:35;;;;;;;;;;;;;;;4.57;88.34;100066.81;5058647;27;20158;-69
2022/01/31 11:28:02;;;;;;;;;;;;;;;4.50;87.51;100070.84;5039821;28;19960;-69
2022/01/31 11:30:27;;;;;;;;;;;;;;;4.42;88.12;100068.81;5044657;27;20462;-69
2022/01/31 11:32:52;;;;;;;;;;;;;;;4.41;89.27;100081.09;5044120;27;19914;-68
2022/01/31 11:35:18;;;;;;;;;;;;;;;4.37;88.21;100087.50;5039453;28;20346;-69
2022/01/31 11:37:43;;;;;;;;;;;;;;;4.43;88.88;100100.13;5025976;27;19911;-67
2022/01/31 11:40:09;;;;;;;;;;;;;;;4.54;88.34;100103.72;5043317;27;20081;-68
2022/01/31 11:42:34;;;;;;;;;;;;;;;4.55;88.35;100105.41;5020678;28;20085;-69
2022/01/31 11:45:02;;;;;;;;;;;;;;;4.45;88.49;100108.69;5020397;28;20400;-70
2022/01/31 11:47:28;;;;;;;;;;;;;;;4.49;88.32;100109.31;5026186;28;20024;-70
2022/01/31 11:50:00;;;;;;;;;;;;;;;4.51;87.93;100109.22;5018005;27;20978;-69
2022/01/31 11:52:27;;;;;;;;;;;;;;;4.43;88.17;100123.72;5033321;27;19956;-69
2022/01/31 11:54:59;;;;;;;;;;;;;;;4.40;88.62;100137.03;5035684;27;19931;-69
2022/01/31 11:57:31;;;;;;;;;;;;;;;4.34;88.51;100145.31;5018809;27;19914;-68
2022/01/31 12:00:07;;;;;;;;;;;;;;;4.43;88.70;100141.22;5065053;27;19899;-68
2022/01/31 12:02:33;;;;;;;;;;;;;;;4.39;88.06;100143.22;5033058;27;20020;-69
2022/01/31 12:05:02;;;;;;;;;;;;;;;4.41;87.79;100145.72;5014619;27;20143;-68
2022/01/31 12:07:39;;;;;;;;;;;;;;;4.44;88.52;100135.88;5016813;27;20378;-69
2022/01/31 12:10:05;;;;;;;;;;;;;;;4.45;88.96;100155.84;5037060;27;20574;-70
2022/01/31 12:12:41;;;;;;;;;;;;;;;4.50;89.31;100154.69;5033790;27;19908;-69
2022/01/31 12:15:39;;;;;;;;;;;;;;;4.60;88.28;100163.56;5022827;27;19930;-67
2022/01/31 12:23:49;;;;;;;;;;;;;;;4.73;88.54;100166.13;5030989;27;19914;-68
2022/01/31 12:26:26;;;;;;;;;;;;;;;4.64;87.48;100178.94;5039231;27;19910;-68
2022/01/31 12:28:55;;;;;;;;;;;;;;;4.51;88.45;100193.88;5035821;27;19934;-68
2022/01/31 12:31:26;;;;;;;;;;;;;;;4.49;89.02;100189.72;5049583;27;19918;-68
2022/01/31 12:33:52;;;;;;;;;;;;;;;4.59;88.21;100190.72;5039736;27;19930;-69
2022/01/31 12:36:46;;;;;;;;;;;;;;;4.62;89.29;100198.34;5023142;27;19974;-71
2022/01/31 12:39:39;;;;;;;;;;;;;;;4.64;88.44;100201.72;5031092;27;19915;-68
2022/01/31 12:42:41;;;;;;;;;;;;;;;4.62;87.85;100199.16;5017176;27;19926;-70
2022/01/31 12:45:07;;;;;;;;;;;;;;;4.60;88.50;100198.47;5036413;27;19904;-70
2022/01/31 12:47:32;;;;;;;;;;;;;;;4.62;88.25;100211.44;5049176;27;20253;-67
2022/01/31 12:50:16;;;;;;;;;;;;;;;4.61;87.96;100215.84;5036572;27;19907;-66
2022/01/31 12:52:42;;;;;;;;;;;;;;;4.65;87.60;100213.84;5044614;27;20246;-68
2022/01/31 12:55:08;;;;;;;;;;;;;;;4.64;87.12;100213.00;5039212;27;19926;-67
2022/01/31 12:57:33;;;;;;;;;;;;;;;4.59;87.23;100222.97;5018417;27;19911;-67
2022/01/31 12:59:59;;;;;;;;;;;;;;;4.58;87.76;100230.94;5048635;27;20024;-68
2022/01/31 13:02:25;;;;;;;;;;;;;;;4.63;87.70;100234.09;5022471;27;19941;-70
2022/01/31 13:04:50;;;;;;;;;;;;;;;4.62;87.77;100238.47;5057703;27;19908;-69
2022/01/31 13:07:18;;;;;;;;;;;;;;;4.58;87.37;100252.78;5052287;27;20189;-72
2022/01/31 13:09:43;;;;;;;;;;;;;;;4.62;87.69;100228.00;5051561;27;21039;-69
2022/01/31 13:12:15;;;;;;;;;;;;;;;4.55;87.59;100244.28;5052216;27;19912;-68
2022/01/31 13:14:41;;;;;;;;;;;;;;;4.63;87.91;100244.56;5044763;27;20002;-68
2022/01/31 13:17:09;;;;;;;;;;;;;;;4.71;88.43;100259.72;5040656;27;19915;-69
2022/01/31 13:19:35;;;;;;;;;;;;;;;4.58;88.17;100263.25;5036231;27;19903;-69
2022/01/31 13:22:02;;;;;;;;;;;;;;;4.66;87.79;100262.69;5047149;27;20777;-70